Аэропорт: Челябинск. Челябинск

ICAO: USCC

METAR:
2018/07/16 20:00
USCC 162000Z 00000MPS CAVOK 16/13 Q1015 R09/000060 NOSIG RMK QFE741
METAR:
2018/07/16 18:21
TAF TAF USCC 161700Z 1618/1718 07002MPS CAVOK 
      TEMPO 1620/1703 3100 BR FU SCT011 
     FM170300 13003G08MPS CAVOK